createdAt,value
2018-11-11T00:01:20.825Z,40.97
2018-11-11T00:03:49.402Z,41.47
2018-11-11T00:06:17.878Z,41.23
2018-11-11T00:08:46.391Z,39.67
2018-11-11T00:11:14.885Z,42.53
2018-11-11T00:13:43.453Z,39.80
2018-11-11T00:16:11.926Z,35.90
2018-11-11T00:18:40.502Z,33.13
2018-11-11T00:21:08.964Z,31.03
2018-11-11T00:23:37.473Z,29.90
2018-11-11T00:26:06.069Z,27.97
2018-11-11T00:28:34.601Z,30.47
2018-11-11T00:31:03.106Z,27.60
2018-11-11T00:33:31.580Z,27.80
2018-11-11T00:36:00.105Z,26.47
2018-11-11T00:38:29.924Z,26.60
2018-11-11T00:40:58.441Z,26.63
2018-11-11T00:43:26.973Z,25.63
2018-11-11T00:45:55.566Z,24.27
2018-11-11T00:48:24.049Z,23.33
2018-11-11T00:50:53.507Z,26.70
2018-11-11T00:53:21.999Z,27.60
2018-11-11T00:55:51.030Z,26.50
2018-11-11T00:58:19.528Z,27.43
2018-11-11T01:00:48.054Z,26.83
2018-11-11T01:03:16.558Z,26.63
2018-11-11T01:05:45.146Z,26.70
2018-11-11T01:08:13.624Z,27.30
2018-11-11T01:10:42.133Z,26.23
2018-11-11T01:13:10.621Z,26.40
2018-11-11T01:15:39.145Z,30.53
2018-11-11T01:18:07.636Z,29.93
2018-11-11T01:20:36.185Z,28.00
2018-11-11T01:23:05.053Z,26.63
2018-11-11T01:25:33.570Z,27.80
2018-11-11T01:28:02.042Z,28.17
2018-11-11T01:30:30.569Z,28.93
2018-11-11T01:32:59.074Z,28.97
2018-11-11T01:35:27.576Z,29.93
2018-11-11T01:37:56.122Z,27.80
2018-11-11T01:40:24.638Z,28.83
2018-11-11T01:42:53.145Z,26.87
2018-11-11T01:45:21.695Z,29.10
2018-11-11T01:47:50.357Z,26.70
2018-11-11T01:50:18.893Z,25.27
2018-11-11T01:52:48.379Z,23.17
2018-11-11T01:55:17.047Z,22.00
2018-11-11T01:57:45.901Z,23.93
2018-11-11T02:00:17.057Z,22.67
2018-11-11T02:02:46.236Z,24.50
2018-11-11T02:05:15.148Z,21.77
2018-11-11T02:07:44.619Z,21.93
2018-11-11T02:10:13.565Z,20.70
2018-11-11T02:12:43.257Z,21.37
2018-11-11T02:15:15.118Z,21.63
2018-11-11T02:17:44.114Z,20.87
2018-11-11T02:20:14.658Z,21.80
2018-11-11T02:22:44.297Z,20.27
2018-11-11T02:25:12.942Z,22.13
2018-11-11T02:27:41.477Z,21.97
2018-11-11T02:30:13.277Z,19.83
2018-11-11T02:32:43.921Z,23.03
2018-11-11T02:35:12.902Z,20.07
2018-11-11T02:37:41.611Z,22.70
2018-11-11T02:40:16.861Z,19.37
2018-11-11T02:42:46.431Z,21.10
2018-11-11T02:45:16.317Z,21.53
2018-11-11T02:47:45.066Z,21.50
2018-11-11T02:50:14.845Z,19.50
2018-11-11T02:52:43.998Z,19.10
2018-11-11T02:55:13.143Z,21.37
2018-11-11T02:57:42.070Z,21.20
2018-11-11T03:00:15.562Z,22.43
2018-11-11T03:02:44.743Z,20.27
2018-11-11T03:12:15.971Z,21.20
2018-11-11T03:14:44.388Z,20.73
2018-11-11T03:17:12.953Z,23.47
2018-11-11T03:19:41.567Z,21.23
2018-11-11T03:22:10.158Z,20.47
2018-11-11T03:24:38.638Z,21.40
2018-11-11T03:27:07.445Z,21.63
2018-11-11T03:29:36.203Z,20.03
2018-11-11T03:32:05.297Z,21.83
2018-11-11T03:34:33.948Z,24.70
2018-11-11T03:37:02.481Z,20.90
2018-11-11T03:39:31.027Z,21.30
2018-11-11T03:41:59.884Z,20.07
2018-11-11T03:44:28.387Z,20.83
2018-11-11T03:46:56.994Z,21.67
2018-11-11T03:49:25.497Z,21.27
2018-11-11T03:51:54.016Z,22.63
2018-11-11T03:54:22.463Z,23.03
2018-11-11T03:56:50.986Z,22.37
2018-11-11T03:59:19.450Z,21.17
2018-11-11T04:01:48.038Z,19.40
2018-11-11T04:04:16.509Z,21.53
2018-11-11T04:06:45.093Z,18.87
2018-11-11T04:09:13.619Z,20.17
2018-11-11T04:11:42.439Z,21.33
2018-11-11T04:14:11.557Z,21.63
2018-11-11T04:16:40.336Z,20.90
2018-11-11T04:19:09.481Z,22.87
2018-11-11T04:21:37.974Z,22.33
2018-11-11T04:24:06.825Z,22.83
2018-11-11T04:26:35.357Z,24.97
2018-11-11T04:29:03.963Z,23.73
2018-11-11T04:31:32.466Z,22.73
2018-11-11T04:34:01.294Z,22.00
2018-11-11T04:36:29.813Z,20.73
2018-11-11T04:38:58.428Z,22.63
2018-11-11T04:41:27.016Z,21.53
2018-11-11T04:43:56.356Z,21.77
2018-11-11T04:46:24.964Z,21.20
2018-11-11T04:48:53.405Z,19.50
2018-11-11T04:51:22.073Z,20.80
2018-11-11T04:53:50.618Z,19.63
2018-11-11T04:56:19.157Z,20.73
2018-11-11T04:58:47.702Z,21.63
2018-11-11T05:01:16.262Z,22.53
2018-11-11T05:03:44.788Z,22.80
2018-11-11T05:06:13.409Z,23.83
2018-11-11T05:08:41.890Z,26.23
2018-11-11T05:11:10.403Z,22.13
2018-11-11T05:13:39.071Z,22.63
2018-11-11T05:16:07.534Z,22.53
2018-11-11T05:18:36.067Z,23.07
2018-11-11T05:21:04.642Z,22.50
2018-11-11T05:23:33.193Z,22.97
2018-11-11T05:26:01.697Z,23.83
2018-11-11T05:28:30.327Z,22.80
2018-11-11T05:30:58.912Z,27.43
2018-11-11T05:33:27.399Z,23.47
2018-11-11T05:35:55.891Z,22.73
2018-11-11T05:38:24.414Z,25.27
2018-11-11T05:40:52.893Z,24.27
2018-11-11T05:43:21.428Z,25.83
2018-11-11T05:45:49.946Z,23.57
2018-11-11T05:48:18.470Z,27.00
2018-11-11T05:50:46.961Z,25.27
2018-11-11T05:53:15.489Z,24.40
2018-11-11T05:55:44.032Z,28.13
2018-11-11T05:58:12.554Z,25.27
2018-11-11T06:00:41.092Z,25.13
2018-11-11T06:03:09.630Z,26.37
2018-11-11T06:05:38.132Z,27.63
2018-11-11T06:08:06.646Z,25.07
2018-11-11T06:10:35.149Z,25.57
2018-11-11T06:13:03.622Z,27.90
2018-11-11T06:15:32.126Z,29.43
2018-11-11T06:18:00.578Z,25.57
2018-11-11T06:20:29.088Z,22.73
2018-11-11T06:22:57.565Z,22.93
2018-11-11T06:25:26.109Z,28.13
2018-11-11T06:27:54.598Z,25.43
2018-11-11T06:30:23.093Z,23.50
2018-11-11T06:32:51.550Z,26.67
2018-11-11T06:35:20.038Z,24.00
2018-11-11T06:37:48.501Z,27.10
2018-11-11T06:40:17.000Z,26.30
2018-11-11T06:42:45.485Z,26.27
2018-11-11T06:45:15.107Z,25.00
2018-11-11T06:47:44.336Z,24.87
2018-11-11T06:50:13.905Z,24.73
2018-11-11T06:52:42.863Z,21.93
2018-11-11T06:55:11.631Z,26.60
2018-11-11T06:57:40.315Z,26.00
2018-11-11T07:00:11.006Z,25.70
2018-11-11T07:02:40.588Z,24.40
2018-11-11T07:05:10.020Z,23.70
2018-11-11T07:07:38.498Z,27.37
2018-11-11T07:10:07.060Z,23.53
2018-11-11T07:12:35.559Z,29.40
2018-11-11T07:15:04.181Z,24.30
2018-11-11T07:17:32.688Z,25.53
2018-11-11T07:20:01.178Z,26.07
2018-11-11T07:22:29.681Z,27.13
2018-11-11T07:24:58.197Z,25.87
2018-11-11T07:27:26.694Z,25.00
2018-11-11T07:29:55.205Z,27.47
2018-11-11T07:32:25.401Z,23.63
2018-11-11T07:34:53.921Z,30.87
2018-11-11T07:37:22.436Z,34.07
2018-11-11T07:39:50.950Z,37.63
2018-11-11T07:42:19.473Z,31.43
2018-11-11T07:44:48.022Z,36.90
2018-11-11T07:47:16.473Z,34.77
2018-11-11T07:49:44.954Z,34.07
2018-11-11T07:52:13.516Z,29.20
2018-11-11T07:54:42.000Z,27.67
2018-11-11T07:57:10.480Z,28.53
2018-11-11T07:59:39.167Z,27.77
2018-11-11T08:02:08.138Z,28.43
2018-11-11T08:04:36.697Z,27.87
2018-11-11T08:07:05.704Z,25.77
2018-11-11T08:09:34.249Z,25.93
2018-11-11T08:12:05.825Z,27.27
2018-11-11T08:14:34.324Z,24.53
2018-11-11T08:17:02.880Z,25.43
2018-11-11T08:19:31.505Z,24.13
2018-11-11T08:22:00.117Z,23.27
2018-11-11T08:24:28.623Z,24.03
2018-11-11T08:26:57.189Z,22.63
2018-11-11T08:29:25.681Z,22.27
2018-11-11T08:31:54.193Z,26.70
2018-11-11T08:34:22.714Z,29.43
2018-11-11T08:36:51.530Z,23.37
2018-11-11T08:39:20.231Z,27.07
2018-11-11T08:41:48.765Z,26.77
2018-11-11T08:44:17.250Z,26.97
2018-11-11T08:46:46.446Z,29.90
2018-11-11T08:49:15.348Z,31.40
2018-11-11T08:51:43.886Z,34.57
2018-11-11T08:54:12.394Z,30.10
2018-11-11T08:56:40.973Z,31.00
2018-11-11T08:59:09.466Z,35.83
2018-11-11T09:01:37.983Z,30.50
2018-11-11T09:04:06.932Z,34.40
2018-11-11T09:06:36.415Z,30.47
2018-11-11T09:09:06.358Z,28.07
2018-11-11T09:11:34.904Z,27.30
2018-11-11T09:14:03.426Z,28.30
2018-11-11T09:16:31.975Z,28.90
2018-11-11T09:19:00.503Z,24.20
2018-11-11T09:21:29.163Z,27.60
2018-11-11T09:23:57.582Z,28.33
2018-11-11T09:26:26.118Z,26.03
2018-11-11T09:28:54.617Z,28.47
2018-11-11T09:31:23.136Z,27.43
2018-11-11T09:33:51.616Z,24.07
2018-11-11T09:36:20.152Z,27.57
2018-11-11T09:38:48.680Z,24.80
2018-11-11T09:41:17.146Z,25.63
2018-11-11T09:43:45.640Z,23.90
2018-11-11T09:46:14.140Z,23.13
2018-11-11T09:48:42.618Z,25.10
2018-11-11T09:51:11.126Z,22.37
2018-11-11T09:53:39.771Z,24.17
2018-11-11T09:56:08.133Z,21.87
2018-11-11T09:58:36.691Z,23.00
2018-11-11T10:01:05.231Z,22.33
2018-11-11T10:03:54.453Z,24.67
2018-11-11T10:08:30.832Z,23.13
2018-11-11T10:11:04.581Z,24.20
2018-11-11T10:13:46.182Z,22.67
2018-11-11T10:17:23.581Z,24.67
2018-11-11T10:20:27.992Z,22.13
2018-11-11T10:23:06.766Z,20.93
2018-11-11T10:25:43.654Z,23.30
2018-11-11T10:28:18.973Z,24.57
2018-11-11T10:30:57.589Z,22.73
2018-11-11T10:35:39.011Z,25.23
2018-11-11T10:38:13.400Z,26.17
2018-11-11T10:40:45.061Z,34.17
2018-11-11T10:43:21.249Z,22.37
2018-11-11T10:45:56.005Z,25.10
2018-11-11T10:48:27.490Z,24.43
2018-11-11T10:50:58.426Z,24.73
2018-11-11T10:53:26.929Z,24.97
2018-11-11T10:55:55.424Z,25.47
2018-11-11T10:58:23.919Z,27.40
2018-11-11T11:00:57.755Z,24.07
2018-11-11T11:03:31.730Z,21.20
2018-11-11T11:06:00.821Z,24.40
2018-11-11T11:08:29.218Z,25.60
2018-11-11T11:10:57.782Z,23.13
2018-11-11T11:13:26.685Z,23.87
2018-11-11T11:15:55.214Z,26.53
2018-11-11T11:18:23.690Z,29.17
2018-11-11T11:20:52.198Z,34.37
2018-11-11T11:23:20.678Z,24.53
2018-11-11T11:25:49.235Z,27.93
2018-11-11T11:28:17.672Z,25.90
2018-11-11T11:30:46.172Z,25.70
2018-11-11T11:33:14.648Z,24.97
2018-11-11T11:35:43.213Z,25.83
2018-11-11T11:38:11.694Z,24.63
2018-11-11T11:40:40.181Z,26.60
2018-11-11T11:43:08.659Z,23.53
2018-11-11T11:45:37.158Z,25.23
2018-11-11T11:48:05.669Z,25.53
2018-11-11T11:50:34.349Z,26.57
2018-11-11T11:53:02.734Z,24.70
2018-11-11T11:55:31.172Z,25.53
2018-11-11T11:58:13.494Z,23.27
2018-11-11T12:00:41.913Z,24.40
2018-11-11T12:03:10.374Z,22.30
2018-11-11T12:05:38.873Z,21.37
2018-11-11T12:08:07.346Z,22.10
2018-11-11T12:10:35.846Z,21.80
2018-11-11T12:13:04.341Z,20.63
2018-11-11T12:15:32.930Z,24.03
2018-11-11T12:18:01.740Z,22.13
2018-11-11T12:20:30.243Z,64.53
2018-11-11T12:22:59.635Z,21.50
2018-11-11T12:25:28.536Z,24.27
2018-11-11T12:27:57.494Z,26.53
2018-11-11T12:30:26.226Z,27.90
2018-11-11T12:32:54.694Z,24.20
2018-11-11T12:35:23.266Z,27.20
2018-11-11T12:37:51.793Z,23.80
2018-11-11T12:40:20.438Z,22.17
2018-11-11T12:42:48.890Z,25.10
2018-11-11T12:45:17.493Z,24.33
2018-11-11T12:47:46.395Z,23.43
2018-11-11T12:50:15.034Z,24.47
2018-11-11T12:52:43.547Z,24.57
2018-11-11T12:55:12.118Z,25.57
2018-11-11T12:57:40.615Z,25.10
2018-11-11T13:00:11.199Z,25.20
2018-11-11T13:02:39.809Z,26.23
2018-11-11T13:05:09.242Z,24.97
2018-11-11T13:07:37.764Z,26.47
2018-11-11T13:10:08.329Z,29.67
2018-11-11T13:12:36.829Z,29.97
2018-11-11T13:15:06.349Z,34.27
2018-11-11T13:17:34.930Z,26.70
2018-11-11T13:20:03.642Z,24.57
2018-11-11T13:22:32.173Z,28.07
2018-11-11T13:25:00.614Z,30.30
2018-11-11T13:27:29.104Z,28.90
2018-11-11T13:29:57.583Z,28.47
2018-11-11T13:32:26.066Z,30.00
2018-11-11T13:34:54.521Z,32.10
2018-11-11T13:37:23.024Z,31.77
2018-11-11T13:39:51.476Z,30.57
2018-11-11T13:42:19.953Z,31.87
2018-11-11T13:44:48.412Z,31.33
2018-11-11T13:47:16.901Z,27.90
2018-11-11T13:49:45.361Z,30.17
2018-11-11T13:52:13.885Z,27.93
2018-11-11T13:54:42.357Z,26.70
2018-11-11T13:57:10.878Z,27.90
2018-11-11T13:59:39.361Z,28.47
2018-11-11T14:02:08.014Z,25.67
2018-11-11T14:04:36.501Z,28.83
2018-11-11T14:07:05.129Z,25.07
2018-11-11T14:09:33.652Z,24.77
2018-11-11T14:12:02.259Z,26.10
2018-11-11T14:14:30.761Z,24.83
2018-11-11T14:16:59.288Z,24.50
2018-11-11T14:19:27.791Z,22.77
2018-11-11T14:21:56.321Z,21.87
2018-11-11T14:24:24.817Z,23.23
2018-11-11T14:26:53.397Z,20.80
2018-11-11T14:29:21.836Z,20.93
2018-11-11T14:31:50.368Z,21.30
2018-11-11T14:34:18.896Z,20.30
2018-11-11T14:36:47.984Z,21.57
2018-11-11T14:39:16.614Z,24.10
2018-11-11T14:41:45.126Z,22.93
2018-11-11T14:44:13.823Z,20.40
2018-11-11T14:46:43.258Z,21.70
2018-11-11T14:49:11.782Z,23.07
2018-11-11T14:51:40.488Z,24.30
2018-11-11T14:54:08.989Z,23.50
2018-11-11T14:56:37.489Z,26.73
2018-11-11T14:59:06.088Z,27.33
2018-11-11T15:01:34.634Z,26.73
2018-11-11T15:04:03.253Z,26.83
2018-11-11T15:06:31.701Z,25.43
2018-11-11T15:09:00.239Z,28.70
2018-11-11T15:11:28.777Z,25.73
2018-11-11T15:13:57.293Z,25.97
2018-11-11T15:16:25.852Z,28.13
2018-11-11T15:18:54.448Z,26.57
2018-11-11T15:21:22.880Z,28.27
2018-11-11T15:23:51.386Z,30.03
2018-11-11T15:26:19.884Z,44.53
2018-11-11T15:28:48.398Z,31.00
2018-11-11T15:31:16.971Z,30.13
2018-11-11T15:33:45.417Z,28.47
2018-11-11T15:36:13.933Z,27.73
2018-11-11T15:38:42.456Z,28.53
2018-11-11T15:41:11.010Z,28.40
2018-11-11T15:43:39.494Z,25.30
2018-11-11T15:46:08.008Z,29.13
2018-11-11T15:48:36.585Z,30.43
2018-11-11T15:51:05.133Z,29.17
2018-11-11T15:53:33.786Z,28.03
2018-11-11T15:56:02.538Z,29.37
2018-11-11T15:58:31.386Z,26.77
2018-11-11T16:00:59.905Z,54.33
2018-11-11T16:03:28.426Z,36.97
2018-11-11T16:05:56.953Z,39.20
2018-11-11T16:08:25.453Z,36.73
2018-11-11T16:10:53.918Z,36.37
2018-11-11T16:13:22.493Z,29.80
2018-11-11T16:15:51.007Z,34.43
2018-11-11T16:18:19.547Z,34.00
2018-11-11T16:20:48.043Z,33.97
2018-11-11T16:23:16.655Z,42.67
2018-11-11T16:25:45.251Z,40.27
2018-11-11T16:28:13.878Z,38.40
2018-11-11T16:30:42.406Z,39.33
2018-11-11T16:33:11.114Z,40.40
2018-11-11T16:35:39.706Z,40.07
2018-11-11T16:38:08.354Z,38.73
2018-11-11T16:40:37.735Z,39.70
2018-11-11T16:43:06.258Z,39.07
2018-11-11T16:45:35.706Z,41.30
2018-11-11T16:48:04.669Z,42.30
2018-11-11T16:50:34.349Z,40.80
2018-11-11T16:53:05.214Z,40.53
2018-11-11T16:55:34.630Z,42.73
2018-11-11T16:58:03.131Z,42.23
2018-11-11T17:00:33.021Z,43.63
2018-11-11T17:03:02.461Z,40.70
2018-11-11T17:05:32.408Z,41.67
2018-11-11T17:08:00.898Z,44.80
2018-11-11T17:10:32.364Z,44.37
2018-11-11T17:13:02.780Z,39.93
2018-11-11T17:15:32.190Z,43.07
2018-11-11T17:18:00.768Z,47.57
2018-11-11T17:20:29.663Z,49.33
2018-11-11T17:22:59.943Z,46.87
2018-11-11T17:25:28.808Z,42.87
2018-11-11T17:27:57.424Z,45.00
2018-11-11T17:30:27.278Z,46.70
2018-11-11T17:32:56.334Z,49.47
2018-11-11T17:35:24.837Z,50.30
2018-11-11T17:37:53.432Z,52.57
2018-11-11T17:40:23.457Z,45.47
2018-11-11T17:42:52.861Z,45.43
2018-11-11T17:45:21.486Z,47.67
2018-11-11T17:47:50.740Z,50.40
2018-11-11T17:50:23.887Z,49.77
2018-11-11T17:52:52.414Z,48.90
2018-11-11T17:55:22.956Z,44.63
2018-11-11T17:57:51.459Z,43.10
2018-11-11T18:00:21.448Z,51.07
2018-11-11T18:02:50.471Z,52.50
2018-11-11T18:05:20.361Z,50.03
2018-11-11T18:07:48.889Z,46.53
2018-11-11T18:10:18.799Z,52.40
2018-11-11T18:12:47.286Z,50.60
2018-11-11T18:15:18.124Z,45.37
2018-11-11T18:17:46.640Z,48.93
2018-11-11T18:20:17.549Z,44.90
2018-11-11T18:22:46.458Z,42.37
2018-11-11T18:25:15.359Z,43.50
2018-11-11T18:27:43.969Z,45.77
2018-11-11T18:30:18.036Z,52.20
2018-11-11T18:32:46.743Z,46.13
2018-11-11T18:35:16.278Z,45.53
2018-11-11T18:37:45.046Z,45.87
2018-11-11T18:40:14.855Z,44.17
2018-11-11T18:42:43.635Z,42.90
2018-11-11T18:45:22.996Z,44.77
2018-11-11T18:47:52.162Z,49.23
2018-11-11T18:50:24.262Z,49.13
2018-11-11T18:52:52.777Z,59.37
2018-11-11T18:55:21.324Z,58.57
2018-11-11T18:57:49.916Z,53.93
2018-11-11T19:00:20.978Z,51.07
2018-11-11T19:02:50.321Z,50.33
2018-11-11T19:05:19.757Z,45.73
2018-11-11T19:07:48.624Z,49.50
2018-11-11T19:10:18.703Z,52.07
2018-11-11T19:12:48.030Z,55.23
2018-11-11T19:15:17.607Z,53.13
2018-11-11T19:17:46.835Z,53.30
2018-11-11T19:20:17.825Z,49.23
2018-11-11T19:22:46.353Z,48.77
2018-11-11T19:25:16.416Z,42.00
2018-11-11T19:27:46.021Z,44.33
2018-11-11T19:30:15.333Z,47.30
2018-11-11T19:32:44.508Z,46.80
2018-11-11T19:35:14.165Z,48.50
2018-11-11T19:37:43.474Z,43.10
2018-11-11T19:40:14.495Z,47.27
2018-11-11T19:42:43.555Z,45.27
2018-11-11T19:45:13.597Z,46.53
2018-11-11T19:47:42.672Z,45.53
2018-11-11T19:50:12.999Z,53.17
2018-11-11T19:52:43.093Z,54.53
2018-11-11T19:55:13.358Z,51.37
2018-11-11T19:57:42.263Z,52.27
2018-11-11T20:00:17.460Z,49.80
2018-11-11T20:02:47.162Z,47.97
2018-11-11T20:05:16.414Z,44.53
2018-11-11T20:07:46.086Z,49.43
2018-11-11T20:10:15.679Z,46.90
2018-11-11T20:12:44.260Z,49.60
2018-11-11T20:15:14.212Z,49.50
2018-11-11T20:17:43.182Z,61.77
2018-11-11T20:20:14.197Z,43.50
2018-11-11T20:22:42.753Z,44.70
2018-11-11T20:25:12.630Z,35.07
2018-11-11T20:27:41.788Z,37.60
2018-11-11T20:30:14.162Z,42.60
2018-11-11T20:32:42.871Z,52.50
2018-11-11T20:35:13.004Z,44.30
2018-11-11T20:37:41.574Z,46.90
2018-11-11T20:40:15.353Z,46.47
2018-11-11T20:42:44.524Z,47.43
2018-11-11T20:45:14.082Z,50.77
2018-11-11T20:47:43.222Z,40.10
2018-11-11T20:50:14.414Z,43.17
2018-11-11T20:52:43.849Z,40.83
2018-11-11T20:55:13.006Z,46.67
2018-11-11T20:57:41.821Z,41.97
2018-11-11T21:00:19.976Z,40.20
2018-11-11T21:02:48.575Z,40.27
2018-11-11T21:05:21.387Z,37.63
2018-11-11T21:07:50.029Z,36.80
2018-11-11T21:10:20.837Z,43.20
2018-11-11T21:12:49.360Z,55.83
2018-11-11T21:15:19.076Z,41.83
2018-11-11T21:17:47.938Z,40.80
2018-11-11T21:20:17.836Z,37.30
2018-11-11T21:22:46.372Z,41.33
2018-11-11T21:25:15.195Z,40.73
2018-11-11T21:27:45.131Z,43.33
2018-11-11T21:30:15.388Z,34.00
2018-11-11T21:32:43.989Z,40.30
2018-11-11T21:35:12.770Z,43.20
2018-11-11T21:37:41.694Z,45.13
2018-11-11T21:40:12.709Z,46.60
2018-11-11T21:42:41.694Z,43.17
2018-11-11T21:45:11.949Z,43.10
2018-11-11T21:47:40.818Z,37.60
2018-11-11T21:50:11.370Z,39.27
2018-11-11T21:52:40.018Z,39.47
2018-11-11T21:55:09.050Z,47.73
2018-11-11T21:57:37.693Z,43.90
2018-11-11T22:00:07.954Z,47.73
2018-11-11T22:02:36.448Z,44.53
2018-11-11T22:05:06.241Z,45.87
2018-11-11T22:07:35.054Z,47.77
2018-11-11T22:10:03.830Z,45.97
2018-11-11T22:12:32.225Z,48.17
2018-11-11T22:15:00.798Z,48.53
2018-11-11T22:17:29.700Z,43.10
2018-11-11T22:19:58.229Z,37.67
2018-11-11T22:22:26.837Z,33.73
2018-11-11T22:24:55.313Z,31.00
2018-11-11T22:27:23.806Z,31.37
2018-11-11T22:29:52.690Z,36.03
2018-11-11T22:32:21.337Z,38.40
2018-11-11T22:34:49.884Z,40.33
2018-11-11T22:37:18.402Z,46.73
2018-11-11T22:39:46.936Z,41.93
2018-11-11T22:42:15.461Z,46.70
2018-11-11T22:44:44.013Z,40.80
2018-11-11T22:47:12.560Z,42.27
2018-11-11T22:49:41.107Z,41.87
2018-11-11T22:52:09.628Z,45.20
2018-11-11T22:54:38.223Z,43.00
2018-11-11T22:57:07.082Z,46.77
2018-11-11T22:59:35.627Z,41.40
2018-11-11T23:02:04.165Z,38.87
2018-11-11T23:04:32.727Z,38.93
2018-11-11T23:07:01.292Z,42.37
2018-11-11T23:09:29.822Z,39.43
2018-11-11T23:11:58.367Z,41.57
2018-11-11T23:14:26.904Z,42.43
2018-11-11T23:16:55.375Z,38.10
2018-11-11T23:19:23.937Z,39.90
2018-11-11T23:21:52.501Z,40.20
2018-11-11T23:24:21.021Z,51.80
2018-11-11T23:26:49.613Z,61.73
2018-11-11T23:29:18.132Z,48.73
2018-11-11T23:31:46.685Z,45.57
2018-11-11T23:34:15.174Z,42.37
2018-11-11T23:36:43.766Z,40.47
2018-11-11T23:39:12.273Z,42.97
2018-11-11T23:41:40.834Z,60.97
2018-11-11T23:44:09.839Z,55.60
2018-11-11T23:46:39.033Z,50.17
2018-11-11T23:49:09.059Z,48.10
2018-11-11T23:51:37.597Z,46.97
2018-11-11T23:54:06.377Z,43.67
2018-11-11T23:56:35.148Z,37.20
2018-11-11T23:59:03.737Z,37.83
